Time;durP1;ratioP1;P1;durP2;ratioP2;P2;SDS_P1;SDS_P2;PMS_P1;PMS_P2;Temp;Humidity;BMP_temperature;BMP_pressure;BME280_temperature;BME280_humidity;BME280_pressure;Samples;Min_cycle;Max_cycle;Signal;HPM_P1;HPM_P2
2023/05/06 00:02:00;;;;;;;0.68;0.50;;;20.60;86.00;;;;;;5007074;28;20221;-79
2023/05/06 00:04:26;;;;;;;0.85;0.75;;;20.60;86.00;;;;;;5004160;28;20387;-78
2023/05/06 00:06:53;;;;;;;1.00;0.60;;;20.60;86.10;;;;;;5007663;28;20046;-78
2023/05/06 00:09:18;;;;;;;1.35;0.50;;;20.60;86.10;;;;;;5007176;28;20133;-78
2023/05/06 00:11:44;;;;;;;1.33;0.50;;;20.60;86.10;;;;;;5005125;28;20237;-78
2023/05/06 00:14:10;;;;;;;0.57;0.45;;;20.60;86.10;;;;;;5002499;28;20140;-78
2023/05/06 00:16:35;;;;;;;0.95;0.55;;;20.60;86.20;;;;;;5002266;28;20107;-78
2023/05/06 00:19:01;;;;;;;0.88;0.80;;;20.60;86.20;;;;;;5002460;28;20046;-78
2023/05/06 00:21:27;;;;;;;1.20;0.70;;;20.60;86.20;;;;;;5004568;28;20556;-78
2023/05/06 00:23:52;;;;;;;0.77;0.65;;;20.50;86.20;;;;;;5002389;28;20046;-78
2023/05/06 00:26:18;;;;;;;1.27;0.50;;;20.50;86.30;;;;;;5004060;28;20042;-78
2023/05/06 00:28:43;;;;;;;0.68;0.55;;;20.50;86.30;;;;;;5004696;28;20042;-78
2023/05/06 00:31:09;;;;;;;0.50;0.40;;;20.50;86.30;;;;;;5005770;28;20050;-78
2023/05/06 00:33:34;;;;;;;1.08;0.47;;;20.50;86.30;;;;;;5003863;28;20524;-78
2023/05/06 00:36:00;;;;;;;0.85;0.40;;;20.50;86.30;;;;;;5005208;28;20440;-78
2023/05/06 00:38:26;;;;;;;0.75;0.47;;;20.50;86.30;;;;;;5007042;28;20503;-78
2023/05/06 00:40:51;;;;;;;0.95;0.57;;;20.50;86.30;;;;;;5003291;28;20050;-78
2023/05/06 00:43:17;;;;;;;0.80;0.60;;;20.50;86.20;;;;;;5005264;28;20053;-78
2023/05/06 00:45:42;;;;;;;0.88;0.50;;;20.50;86.40;;;;;;5006834;28;20038;-78
2023/05/06 00:48:08;;;;;;;0.43;0.38;;;20.50;86.20;;;;;;5032312;28;20044;-78
2023/05/06 00:50:34;;;;;;;0.52;0.40;;;20.50;86.30;;;;;;5005539;28;20041;-78
2023/05/06 00:52:59;;;;;;;0.85;0.60;;;20.50;86.20;;;;;;5033811;28;20044;-79
2023/05/06 00:55:25;;;;;;;0.70;0.60;;;20.50;86.20;;;;;;5012619;28;20085;-78
2023/05/06 00:57:51;;;;;;;1.00;0.40;;;20.50;86.20;;;;;;5021009;28;20044;-78
2023/05/06 01:00:17;;;;;;;0.88;0.43;;;20.50;86.20;;;;;;5025583;28;20050;-78
2023/05/06 01:02:43;;;;;;;0.50;0.40;;;20.50;86.10;;;;;;5003620;28;20037;-78
2023/05/06 01:05:09;;;;;;;1.38;0.57;;;20.50;86.10;;;;;;5004572;28;20045;-78
2023/05/06 01:07:45;;;;;;;0.50;0.50;;;20.50;86.10;;;;;;5015082;28;20049;-78
2023/05/06 01:10:21;;;;;;;2.25;0.70;;;20.50;86.10;;;;;;5030662;28;20038;-78
2023/05/06 01:13:13;;;;;;;0.70;0.40;;;20.50;86.10;;;;;;5002664;28;20565;-78
2023/05/06 01:15:46;;;;;;;1.00;0.55;;;20.50;86.30;;;;;;5004460;28;20115;-78
2023/05/06 01:18:19;;;;;;;0.68;0.50;;;20.50;86.20;;;;;;5000187;28;20088;-78
2023/05/06 01:20:48;;;;;;;0.68;0.40;;;20.50;86.20;;;;;;5025293;28;20570;-78
2023/05/06 01:23:14;;;;;;;0.77;0.32;;;20.50;86.20;;;;;;5007256;28;20049;-78
2023/05/06 01:25:39;;;;;;;0.65;0.50;;;20.50;86.10;;;;;;4992273;28;20030;-79
2023/05/06 01:28:09;;;;;;;0.88;0.60;;;20.50;86.00;;;;;;5002704;28;20081;-78
2023/05/06 01:31:00;;;;;;;1.42;0.60;;;20.50;86.00;;;;;;5034797;28;20049;-79
2023/05/06 01:33:37;;;;;;;0.80;0.55;;;20.50;86.10;;;;;;5020803;28;20756;-78
2023/05/06 01:36:12;;;;;;;0.57;0.50;;;20.50;86.10;;;;;;5008108;28;20060;-78
2023/05/06 01:39:07;;;;;;;1.10;0.50;;;20.50;86.10;;;;;;4994502;28;20048;-78
2023/05/06 01:41:33;;;;;;;0.65;0.40;;;20.50;86.10;;;;;;5014057;28;20410;-78
2023/05/06 01:43:59;;;;;;;0.82;0.45;;;20.50;86.10;;;;;;5007113;28;20045;-79
2023/05/06 01:46:24;;;;;;;0.50;0.40;;;20.40;86.10;;;;;;5034226;28;20042;-79
2023/05/06 01:48:52;;;;;;;0.70;0.60;;;20.40;86.10;;;;;;5024152;28;20062;-79
2023/05/06 01:51:20;;;;;;;0.55;0.50;;;20.40;86.10;;;;;;5002563;28;20051;-79
2023/05/06 01:53:45;;;;;;;0.60;0.47;;;20.40;86.00;;;;;;5035594;28;20045;-78
2023/05/06 01:56:11;;;;;;;0.75;0.60;;;20.40;86.00;;;;;;5010060;28;20518;-77
2023/05/06 01:58:37;;;;;;;0.22;0.20;;;20.40;86.10;;;;;;5008072;28;20399;-78
2023/05/06 02:01:02;;;;;;;0.47;0.35;;;20.40;86.10;;;;;;5011044;28;20411;-78
2023/05/06 02:03:28;;;;;;;0.98;0.65;;;20.40;86.10;;;;;;5012701;28;20070;-78
2023/05/06 02:05:54;;;;;;;0.63;0.40;;;20.40;86.20;;;;;;5007726;28;20042;-78
2023/05/06 02:08:19;;;;;;;0.47;0.30;;;20.40;86.10;;;;;;5004297;28;20107;-78
2023/05/06 02:10:45;;;;;;;0.65;0.50;;;20.40;86.20;;;;;;5009365;28;20049;-78
2023/05/06 02:13:11;;;;;;;0.68;0.50;;;20.40;86.10;;;;;;5007981;28;20042;-78
2023/05/06 02:15:36;;;;;;;0.75;0.50;;;20.40;86.20;;;;;;5007209;28;20077;-78
2023/05/06 02:18:02;;;;;;;0.52;0.40;;;20.40;86.30;;;;;;5011039;28;20074;-78
2023/05/06 02:20:27;;;;;;;0.70;0.40;;;20.40;86.30;;;;;;5007699;28;20526;-78
2023/05/06 02:22:53;;;;;;;0.35;0.30;;;20.40;86.40;;;;;;5006580;28;20046;-78
2023/05/06 02:25:18;;;;;;;0.43;0.35;;;20.40;86.30;;;;;;5007562;28;20080;-78
2023/05/06 02:27:44;;;;;;;1.05;0.47;;;20.40;86.40;;;;;;5010695;28;20080;-78
2023/05/06 02:30:10;;;;;;;0.50;0.40;;;20.40;86.20;;;;;;5006700;28;20052;-78
2023/05/06 02:32:36;;;;;;;0.65;0.38;;;20.40;86.30;;;;;;5001996;28;20518;-78
2023/05/06 02:35:01;;;;;;;0.52;0.50;;;20.40;86.30;;;;;;5006412;28;20045;-78
2023/05/06 02:37:27;;;;;;;1.00;0.50;;;20.40;86.40;;;;;;5004778;28;20129;-78
2023/05/06 02:39:52;;;;;;;1.23;0.70;;;20.40;86.40;;;;;;5006517;28;20056;-78
2023/05/06 02:42:19;;;;;;;0.70;0.50;;;20.40;86.50;;;;;;5005347;28;20120;-78
2023/05/06 02:44:45;;;;;;;0.40;0.40;;;20.40;86.50;;;;;;5008676;28;20092;-78
2023/05/06 02:47:10;;;;;;;0.73;0.40;;;20.40;86.50;;;;;;5002871;28;20042;-78
2023/05/06 02:49:36;;;;;;;1.27;0.50;;;20.30;86.40;;;;;;5004536;28;20050;-78
2023/05/06 02:52:01;;;;;;;0.65;0.50;;;20.30;86.40;;;;;;5007874;28;20089;-78
2023/05/06 02:54:27;;;;;;;0.40;0.40;;;20.30;86.50;;;;;;5006583;28;20029;-78
2023/05/06 02:56:52;;;;;;;0.60;0.60;;;20.30;86.50;;;;;;5005421;28;20534;-78
2023/05/06 02:59:18;;;;;;;0.50;0.40;;;20.40;86.50;;;;;;5005977;28;20551;-78
2023/05/06 03:01:44;;;;;;;0.43;0.20;;;20.30;86.50;;;;;;5003456;28;20124;-77
2023/05/06 03:04:09;;;;;;;0.82;0.52;;;20.30;86.50;;;;;;5003930;28;20046;-78
2023/05/06 03:06:35;;;;;;;0.50;0.30;;;20.30;86.50;;;;;;5006032;28;20053;-78
2023/05/06 03:09:00;;;;;;;0.90;0.35;;;20.30;86.50;;;;;;5032469;28;20057;-78
2023/05/06 03:11:26;;;;;;;0.70;0.38;;;20.30;86.50;;;;;;5002494;28;20446;-78
2023/05/06 03:13:52;;;;;;;0.43;0.43;;;20.30;86.40;;;;;;5025456;28;20034;-78
2023/05/06 03:16:17;;;;;;;1.25;0.35;;;20.30;86.50;;;;;;5002720;28;20045;-78
2023/05/06 03:18:43;;;;;;;0.63;0.40;;;20.30;86.50;;;;;;5003368;28;20500;-78
2023/05/06 03:21:09;;;;;;;0.60;0.50;;;20.30;86.40;;;;;;5002265;28;20050;-78
2023/05/06 03:23:35;;;;;;;0.40;0.30;;;20.30;86.50;;;;;;5004448;28;20104;-78
2023/05/06 03:26:01;;;;;;;0.75;0.40;;;20.30;86.50;;;;;;5002539;28;20034;-78
2023/05/06 03:28:26;;;;;;;2.00;0.43;;;20.30;86.50;;;;;;5004847;28;20049;-78
2023/05/06 03:30:52;;;;;;;0.55;0.30;;;20.30;86.40;;;;;;5005266;28;20393;-78
2023/05/06 03:33:17;;;;;;;0.70;0.50;;;20.30;86.50;;;;;;5007345;28;20136;-78
2023/05/06 03:35:43;;;;;;;0.47;0.40;;;20.30;86.50;;;;;;5001576;28;20073;-78
2023/05/06 03:38:08;;;;;;;0.80;0.40;;;20.30;86.50;;;;;;5006226;28;20057;-78
2023/05/06 03:40:34;;;;;;;0.60;0.40;;;20.30;86.40;;;;;;5007666;28;20042;-78
2023/05/06 03:42:59;;;;;;;0.55;0.43;;;20.30;86.40;;;;;;5007386;28;20041;-78
2023/05/06 03:45:25;;;;;;;0.40;0.40;;;20.30;86.50;;;;;;5009391;28;20053;-78
2023/05/06 03:47:51;;;;;;;0.80;0.43;;;20.30;86.40;;;;;;5004800;28;20049;-77
2023/05/06 03:50:17;;;;;;;0.60;0.50;;;20.30;86.50;;;;;;5003502;28;20043;-78
2023/05/06 03:52:42;;;;;;;0.35;0.35;;;20.30;86.40;;;;;;5002052;28;20687;-78
2023/05/06 03:55:08;;;;;;;0.40;0.30;;;20.30;86.40;;;;;;4998728;28;20161;-78
2023/05/06 03:57:34;;;;;;;0.50;0.40;;;20.30;86.40;;;;;;5011878;28;20085;-78
2023/05/06 03:59:59;;;;;;;0.50;0.30;;;20.30;86.40;;;;;;5009067;28;20088;-78
2023/05/06 04:02:25;;;;;;;0.73;0.30;;;20.30;86.40;;;;;;5004467;28;20052;-78
2023/05/06 04:04:51;;;;;;;0.30;0.30;;;20.30;86.40;;;;;;5005125;28;20056;-78
2023/05/06 04:07:16;;;;;;;0.20;0.20;;;20.30;86.40;;;;;;5020900;28;20045;-78
2023/05/06 04:09:42;;;;;;;0.35;0.32;;;20.20;86.40;;;;;;5007650;28;20491;-78
2023/05/06 04:12:07;;;;;;;0.38;0.38;;;20.30;86.40;;;;;;5003761;28;20046;-78
2023/05/06 04:14:33;;;;;;;0.65;0.32;;;20.20;86.40;;;;;;5005173;28;20092;-78
2023/05/06 04:16:59;;;;;;;0.43;0.30;;;20.30;86.40;;;;;;5003589;28;20128;-79
2023/05/06 04:19:24;;;;;;;0.60;0.30;;;20.20;86.30;;;;;;5026310;28;20253;-79
2023/05/06 04:21:50;;;;;;;0.43;0.30;;;20.20;86.30;;;;;;5004576;28;20045;-79
2023/05/06 04:24:15;;;;;;;1.13;0.40;;;20.30;86.40;;;;;;5007966;28;20065;-78
2023/05/06 04:26:41;;;;;;;0.45;0.40;;;20.30;86.40;;;;;;5004536;28;20547;-78
2023/05/06 04:29:07;;;;;;;0.25;0.17;;;20.20;86.40;;;;;;5003865;28;20412;-78
2023/05/06 04:31:33;;;;;;;0.30;0.30;;;20.20;86.40;;;;;;5003575;28;20042;-78
2023/05/06 04:34:00;;;;;;;0.52;0.30;;;20.30;86.40;;;;;;5001152;28;20046;-78
2023/05/06 04:36:25;;;;;;;0.55;0.40;;;20.30;86.50;;;;;;5002181;28;20046;-78
2023/05/06 04:38:52;;;;;;;0.57;0.57;;;20.30;86.60;;;;;;4988631;28;20042;-79
2023/05/06 04:41:17;;;;;;;0.47;0.28;;;20.30;86.50;;;;;;5001574;28;20042;-78
2023/05/06 04:43:43;;;;;;;0.40;0.20;;;20.30;86.50;;;;;;5007497;28;20037;-79
2023/05/06 04:46:09;;;;;;;0.50;0.38;;;20.30;86.50;;;;;;5005971;28;20045;-79
2023/05/06 04:48:35;;;;;;;0.70;0.50;;;20.20;86.40;;;;;;5003247;28;20531;-78
2023/05/06 04:51:03;;;;;;;0.30;0.25;;;20.30;86.50;;;;;;5001313;28;20044;-80
2023/05/06 04:53:28;;;;;;;0.40;0.40;;;20.20;86.40;;;;;;5029329;28;20048;-78
2023/05/06 04:55:54;;;;;;;0.52;0.30;;;20.20;86.30;;;;;;5005327;28;20041;-79
2023/05/06 04:58:20;;;;;;;0.30;0.30;;;20.30;86.30;;;;;;5005153;28;20191;-79
2023/05/06 05:00:45;;;;;;;0.63;0.50;;;20.30;86.30;;;;;;5009467;28;20472;-79
2023/05/06 05:03:11;;;;;;;0.68;0.30;;;20.20;86.30;;;;;;5008745;28;20046;-80
2023/05/06 05:05:36;;;;;;;0.50;0.40;;;20.20;86.40;;;;;;5004631;28;20571;-79
2023/05/06 05:08:02;;;;;;;0.30;0.30;;;20.20;86.60;;;;;;5005982;28;20042;-86
2023/05/06 05:10:28;;;;;;;0.63;0.40;;;20.20;86.40;;;;;;5022110;28;20050;-84
2023/05/06 05:12:53;;;;;;;0.60;0.52;;;20.20;86.40;;;;;;5003536;28;20053;-86
2023/05/06 05:15:20;;;;;;;0.70;0.40;;;20.20;86.60;;;;;;5007572;28;20111;-88
2023/05/06 05:17:45;;;;;;;0.63;0.40;;;20.20;86.30;;;;;;4988260;28;20409;-85
2023/05/06 05:20:11;;;;;;;0.55;0.38;;;20.30;86.30;;;;;;5005290;28;20057;-85
2023/05/06 05:22:37;;;;;;;0.30;0.30;;;20.30;86.30;;;;;;5020825;28;20129;-86
2023/05/06 05:25:03;;;;;;;0.30;0.30;;;20.20;86.30;;;;;;5004678;28;20070;-84
2023/05/06 05:27:29;;;;;;;0.93;0.30;;;20.20;86.30;;;;;;5004845;28;20608;-84
2023/05/06 05:29:55;;;;;;;0.52;0.30;;;20.20;86.40;;;;;;5019785;28;20511;-86
2023/05/06 05:32:21;;;;;;;0.95;0.68;;;20.30;86.40;;;;;;5009320;28;20038;-84
2023/05/06 05:34:46;;;;;;;0.55;0.40;;;20.20;86.40;;;;;;5029209;28;20546;-85
2023/05/06 05:37:12;;;;;;;0.63;0.40;;;20.20;86.40;;;;;;5002877;28;20078;-85
2023/05/06 05:39:37;;;;;;;0.30;0.30;;;20.20;86.30;;;;;;5007465;28;20045;-84
2023/05/06 05:42:03;;;;;;;0.52;0.50;;;20.20;86.30;;;;;;5016518;28;20512;-85
2023/05/06 05:44:29;;;;;;;0.30;0.30;;;20.20;86.30;;;;;;5003922;28;20046;-84
2023/05/06 05:46:54;;;;;;;0.65;0.40;;;20.30;86.40;;;;;;5006246;28;20038;-84
2023/05/06 05:49:20;;;;;;;1.48;0.47;;;20.30;86.40;;;;;;5007090;28;20034;-84
2023/05/06 05:51:46;;;;;;;1.00;0.40;;;20.30;86.40;;;;;;5007959;28;20056;-84
2023/05/06 05:54:11;;;;;;;0.40;0.25;;;20.20;86.30;;;;;;5003046;28;20046;-84
2023/05/06 05:56:37;;;;;;;0.20;0.20;;;20.20;86.30;;;;;;5003895;28;20047;-85
2023/05/06 05:59:02;;;;;;;0.75;0.57;;;20.10;86.30;;;;;;5004613;28;20049;-84
2023/05/06 06:01:28;;;;;;;0.98;0.20;;;20.20;86.30;;;;;;5002750;28;20045;-85
2023/05/06 06:03:54;;;;;;;0.43;0.30;;;20.30;86.40;;;;;;5004699;28;20046;-85
2023/05/06 06:06:20;;;;;;;0.40;0.30;;;20.20;86.30;;;;;;4997430;28;20095;-85
2023/05/06 06:08:46;;;;;;;0.40;0.20;;;20.30;86.40;;;;;;5009204;28;20058;-83
2023/05/06 06:11:11;;;;;;;0.52;0.50;;;20.20;86.30;;;;;;5011706;28;20093;-82
2023/05/06 06:13:38;;;;;;;0.52;0.50;;;20.30;86.40;;;;;;4993047;28;20046;-85
2023/05/06 06:16:04;;;;;;;0.65;0.40;;;20.20;86.30;;;;;;5000615;28;20470;-82
2023/05/06 06:18:29;;;;;;;0.35;0.30;;;20.20;86.20;;;;;;5013158;28;20053;-83
2023/05/06 06:20:55;;;;;;;0.82;0.40;;;20.20;86.90;;;;;;5006586;28;20151;-83
2023/05/06 06:23:21;;;;;;;2.45;0.50;;;20.30;86.20;;;;;;5003848;28;20042;-82
2023/05/06 06:25:46;;;;;;;0.68;0.30;;;20.30;86.10;;;;;;5005855;28;20045;-83
2023/05/06 06:28:12;;;;;;;1.13;0.50;;;20.20;86.90;;;;;;5005028;28;20056;-84
2023/05/06 06:30:37;;;;;;;0.45;0.38;;;20.20;86.10;;;;;;5002831;28;20419;-84
2023/05/06 06:33:03;;;;;;;0.50;0.30;;;20.30;86.30;;;;;;5019266;28;20077;-87
2023/05/06 06:35:29;;;;;;;0.40;0.30;;;20.20;86.20;;;;;;5004744;28;20052;-82
2023/05/06 06:37:54;;;;;;;0.75;0.43;;;20.30;86.70;;;;;;5001954;28;20049;-85
2023/05/06 06:40:20;;;;;;;0.63;0.40;;;20.20;86.50;;;;;;4991341;28;20037;-84
2023/05/06 06:42:46;;;;;;;0.70;0.50;;;20.30;86.40;;;;;;5008428;28;20045;-84
2023/05/06 06:45:12;;;;;;;1.67;0.32;;;20.30;86.20;;;;;;5007102;28;20095;-85
2023/05/06 06:47:38;;;;;;;0.63;0.30;;;20.30;86.00;;;;;;5001912;28;20050;-89
2023/05/06 06:50:04;;;;;;;0.20;0.20;;;20.30;85.90;;;;;;5004350;28;20439;-86
2023/05/06 06:52:36;;;;;;;4.57;0.45;;;20.30;86.10;;;;;;5001061;28;20076;-84
2023/05/06 06:55:02;;;;;;;0.55;0.38;;;20.30;86.30;;;;;;5002242;28;20048;-87
2023/05/06 06:57:28;;;;;;;2.47;0.50;;;20.30;86.10;;;;;;5004995;28;20125;-85
2023/05/06 07:00:09;;;;;;;0.40;0.30;;;20.30;86.20;;;;;;5003844;28;20042;-85
2023/05/06 07:02:35;;;;;;;0.35;0.22;;;20.30;86.30;;;;;;5006416;28;20070;-83
2023/05/06 07:05:02;;;;;;;0.73;0.28;;;20.30;86.30;;;;;;5007790;28;20077;-86
2023/05/06 07:07:28;;;;;;;0.70;0.40;;;20.40;86.30;;;;;;5007014;28;20086;-86
2023/05/06 07:09:53;;;;;;;0.47;0.20;;;20.30;86.20;;;;;;5022158;28;20081;-86
2023/05/06 07:12:19;;;;;;;0.88;0.30;;;20.40;86.20;;;;;;5007564;28;20049;-85
2023/05/06 07:14:44;;;;;;;0.50;0.40;;;20.40;86.20;;;;;;5002655;28;20049;-85
2023/05/06 07:17:10;;;;;;;0.90;0.30;;;20.40;86.10;;;;;;5000913;28;20070;-86
2023/05/06 07:19:36;;;;;;;0.52;0.40;;;20.40;86.10;;;;;;5020459;28;20381;-85
2023/05/06 07:22:02;;;;;;;0.52;0.30;;;20.40;86.10;;;;;;5006778;28;20046;-86
2023/05/06 07:24:28;;;;;;;0.30;0.20;;;20.40;86.10;;;;;;5003009;28;20050;-86
2023/05/06 07:26:54;;;;;;;0.40;0.22;;;20.40;86.00;;;;;;5015144;28;20070;-85
2023/05/06 07:29:19;;;;;;;0.47;0.20;;;20.40;86.00;;;;;;5017913;28;20447;-85
2023/05/06 07:31:45;;;;;;;0.60;0.30;;;20.40;86.00;;;;;;5003028;28;20442;-85
2023/05/06 07:34:10;;;;;;;0.40;0.20;;;20.40;86.00;;;;;;5015395;28;20038;-85
2023/05/06 07:36:39;;;;;;;0.40;0.30;;;20.40;86.00;;;;;;4988248;28;20042;-85
2023/05/06 07:39:06;;;;;;;0.98;0.40;;;20.40;86.00;;;;;;5019115;28;20668;-90
2023/05/06 07:41:32;;;;;;;0.47;0.40;;;20.30;85.90;;;;;;5001970;28;20038;-89
2023/05/06 07:43:57;;;;;;;0.60;0.35;;;20.40;85.80;;;;;;4998487;28;20062;-91
2023/05/06 07:46:23;;;;;;;0.30;0.25;;;20.40;85.80;;;;;;5006802;28;20065;-87
2023/05/06 07:48:50;;;;;;;0.60;0.38;;;20.40;86.50;;;;;;5031317;28;20104;-89
2023/05/06 07:51:16;;;;;;;0.30;0.30;;;20.40;85.70;;;;;;5007285;28;20125;-87
2023/05/06 07:53:42;;;;;;;0.40;0.22;;;20.40;85.80;;;;;;5013842;28;20037;-87
2023/05/06 07:56:07;;;;;;;0.25;0.13;;;20.40;85.90;;;;;;5003485;28;20523;-87
2023/05/06 07:58:33;;;;;;;3.33;0.43;;;20.40;85.90;;;;;;5005547;28;20050;-87
2023/05/06 08:00:59;;;;;;;0.40;0.20;;;20.40;85.90;;;;;;5004440;28;20129;-88
2023/05/06 08:03:24;;;;;;;0.20;0.10;;;20.40;86.10;;;;;;5000369;28;20038;-87
2023/05/06 08:05:50;;;;;;;0.60;0.40;;;20.30;86.10;;;;;;4987937;28;20053;-87
2023/05/06 08:08:18;;;;;;;0.25;0.25;;;20.30;86.20;;;;;;5013255;28;20043;-88
2023/05/06 08:10:47;;;;;;;0.55;0.22;;;20.30;86.10;;;;;;4985584;28;20054;-87
2023/05/06 08:13:13;;;;;;;0.38;0.38;;;20.30;86.00;;;;;;5029843;28;20050;-86
2023/05/06 08:15:39;;;;;;;1.23;0.40;;;20.40;86.00;;;;;;5004889;28;20045;-90
2023/05/06 08:18:05;;;;;;;0.93;0.30;;;20.40;86.10;;;;;;5004896;28;20048;-93
2023/05/06 08:20:30;;;;;;;0.30;0.30;;;20.40;85.90;;;;;;5006632;28;20526;-91
2023/05/06 08:22:56;;;;;;;1.25;0.38;;;20.40;86.00;;;;;;5004958;28;20052;-88
2023/05/06 08:25:22;;;;;;;0.80;0.43;;;20.40;85.80;;;;;;5007128;28;20313;-88
2023/05/06 08:27:47;;;;;;;0.60;0.30;;;20.40;86.10;;;;;;5020384;28;20481;-80
2023/05/06 08:30:13;;;;;;;0.50;0.20;;;20.30;85.90;;;;;;5005416;28;20046;-89
2023/05/06 08:32:39;;;;;;;0.65;0.47;;;20.40;85.90;;;;;;5009825;28;20096;-81
2023/05/06 08:35:06;;;;;;;0.47;0.30;;;20.40;85.80;;;;;;5005914;28;20045;-87
2023/05/06 08:37:31;;;;;;;0.70;0.20;;;20.40;85.80;;;;;;5006450;28;20041;-86
2023/05/06 08:39:57;;;;;;;0.25;0.25;;;20.40;85.70;;;;;;5003843;28;20050;-89
2023/05/06 08:42:23;;;;;;;0.30;0.20;;;20.40;85.80;;;;;;5002182;28;20073;-90
2023/05/06 08:44:50;;;;;;;0.20;0.20;;;20.40;85.80;;;;;;5005120;28;20038;-89
2023/05/06 08:47:16;;;;;;;0.98;0.45;;;20.40;85.90;;;;;;5031728;28;20141;-89
2023/05/06 08:49:41;;;;;;;0.52;0.30;;;20.40;85.80;;;;;;5005727;28;20145;-87
2023/05/06 08:52:07;;;;;;;0.75;0.30;;;20.40;85.90;;;;;;5004988;28;20053;-88
2023/05/06 08:54:34;;;;;;;0.28;0.20;;;20.40;85.70;;;;;;5006137;28;20073;-87
2023/05/06 08:57:01;;;;;;;0.30;0.30;;;20.40;85.90;;;;;;5004750;28;20046;-89
2023/05/06 08:59:29;;;;;;;0.93;0.30;;;20.40;85.80;;;;;;5019691;28;20045;-89
2023/05/06 09:01:54;;;;;;;0.52;0.40;;;20.40;85.70;;;;;;5001609;28;20042;-88
2023/05/06 09:04:20;;;;;;;0.43;0.30;;;20.50;85.90;;;;;;5003948;28;20056;-88
2023/05/06 09:06:45;;;;;;;0.47;0.22;;;20.50;85.80;;;;;;4986938;28;20045;-88
2023/05/06 09:09:13;;;;;;;0.40;0.30;;;20.40;85.70;;;;;;5004987;28;20065;-90
2023/05/06 09:11:39;;;;;;;2.22;0.40;;;20.50;85.80;;;;;;5002435;28;20165;-85
2023/05/06 09:14:12;;;;;;;0.43;0.25;;;20.50;85.80;;;;;;5004233;28;20086;-88
2023/05/06 09:16:43;;;;;;;0.30;0.20;;;20.40;85.70;;;;;;4998924;28;20050;-83
2023/05/06 09:19:08;;;;;;;0.70;0.30;;;20.40;85.70;;;;;;5013603;28;20046;-88
2023/05/06 09:21:35;;;;;;;0.40;0.30;;;20.50;85.70;;;;;;5007130;28;20084;-88
2023/05/06 09:24:01;;;;;;;0.40;0.20;;;20.50;86.40;;;;;;5002161;28;20415;-88
2023/05/06 09:26:28;;;;;;;0.38;0.30;;;20.50;85.70;;;;;;5020830;28;20052;-88
2023/05/06 09:28:55;;;;;;;0.52;0.40;;;20.50;85.70;;;;;;5006398;28;20041;-86
2023/05/06 09:31:21;;;;;;;0.68;0.50;;;20.50;85.70;;;;;;4970779;28;20077;-86
2023/05/06 09:33:46;;;;;;;0.70;0.40;;;20.50;85.60;;;;;;4986235;28;20531;-90
2023/05/06 09:36:12;;;;;;;2.90;0.38;;;20.50;86.30;;;;;;5001947;28;20108;-87
2023/05/06 09:38:41;;;;;;;0.57;0.30;;;20.50;85.50;;;;;;4999709;28;20419;-91
2023/05/06 09:41:07;;;;;;;1.20;0.30;;;20.50;85.40;;;;;;5007922;28;20045;-83
2023/05/06 09:43:33;;;;;;;0.57;0.13;;;20.50;85.50;;;;;;5008655;28;20046;-83
2023/05/06 09:46:00;;;;;;;2.33;0.40;;;20.50;85.70;;;;;;5023406;28;20630;-82
2023/05/06 09:48:29;;;;;;;0.38;0.30;;;20.50;85.50;;;;;;5023267;28;20053;-85
2023/05/06 09:50:55;;;;;;;0.32;0.20;;;20.50;85.50;;;;;;5019237;28;20042;-84
2023/05/06 09:53:22;;;;;;;0.30;0.25;;;20.50;85.40;;;;;;5021328;28;20037;-88
2023/05/06 09:55:47;;;;;;;0.73;0.35;;;20.50;85.60;;;;;;5012724;28;20053;-87
2023/05/06 09:58:15;;;;;;;1.33;0.30;;;20.50;85.60;;;;;;5004106;28;20057;-85
2023/05/06 10:00:41;;;;;;;0.85;0.38;;;20.60;85.60;;;;;;5003731;28;20050;-86
2023/05/06 10:03:06;;;;;;;0.63;0.30;;;20.60;85.60;;;;;;5005049;28;20053;-84
2023/05/06 10:05:32;;;;;;;0.75;0.50;;;20.60;85.50;;;;;;5013389;28;20038;-87
2023/05/06 10:07:58;;;;;;;1.48;0.30;;;20.60;85.50;;;;;;5020108;28;20042;-87
2023/05/06 10:10:23;;;;;;;0.20;0.10;;;20.60;85.40;;;;;;5021475;28;20058;-88
2023/05/06 10:12:49;;;;;;;0.25;0.25;;;20.60;85.50;;;;;;5007906;28;20053;-86
2023/05/06 10:15:15;;;;;;;0.32;0.32;;;20.60;85.30;;;;;;5007677;28;20046;-86
2023/05/06 10:17:41;;;;;;;0.40;0.40;;;20.70;85.50;;;;;;5019833;28;20039;-86
2023/05/06 10:20:08;;;;;;;1.23;0.30;;;20.70;85.40;;;;;;5019943;28;20050;-83
2023/05/06 10:23:11;;;;;;;0.60;0.35;;;20.70;85.30;;;;;;5022426;28;20052;-88
2023/05/06 10:25:38;;;;;;;0.52;0.30;;;20.70;85.30;;;;;;5005447;28;20538;-80
2023/05/06 10:28:10;;;;;;;0.22;0.22;;;20.70;85.40;;;;;;5024297;28;20053;-84
2023/05/06 10:30:37;;;;;;;0.73;0.20;;;20.70;85.50;;;;;;5016443;28;20056;-85
2023/05/06 10:33:04;;;;;;;0.47;0.22;;;20.70;85.50;;;;;;5001496;28;20085;-86
2023/05/06 10:35:42;;;;;;;0.60;0.28;;;20.70;85.70;;;;;;5004644;28;20108;-84
2023/05/06 10:38:21;;;;;;;0.30;0.30;;;20.70;85.90;;;;;;4999223;28;20608;-86
2023/05/06 10:40:47;;;;;;;1.40;0.60;;;20.70;86.20;;;;;;5003326;28;20552;-86
2023/05/06 10:43:29;;;;;;;1.23;0.47;;;20.70;86.20;;;;;;5021208;28;20061;-86
2023/05/06 10:45:59;;;;;;;1.88;0.60;;;20.70;86.80;;;;;;5006883;28;20606;-85
2023/05/06 10:48:25;;;;;;;1.13;0.50;;;20.80;86.90;;;;;;5005702;28;20052;-91
2023/05/06 10:50:50;;;;;;;0.90;0.50;;;20.80;86.80;;;;;;5002542;28;20054;-89
2023/05/06 10:53:16;;;;;;;0.25;0.20;;;20.80;86.60;;;;;;5000519;28;20073;-91
2023/05/06 10:55:41;;;;;;;1.45;0.40;;;20.80;86.40;;;;;;5002572;28;20046;-90
2023/05/06 10:58:09;;;;;;;1.00;0.50;;;20.80;86.40;;;;;;5015925;28;20053;-90
2023/05/06 11:00:35;;;;;;;1.02;0.30;;;20.80;86.50;;;;;;5003505;28;20050;-89
2023/05/06 11:03:05;;;;;;;2.63;0.60;;;20.80;86.30;;;;;;4995393;28;20046;-87
2023/05/06 11:05:30;;;;;;;0.90;0.63;;;20.80;86.70;;;;;;4998352;28;20065;-86
2023/05/06 11:08:11;;;;;;;3.70;0.60;;;20.90;89.70;;;;;;5000900;28;20824;-89
2023/05/06 11:10:36;;;;;;;3.33;0.50;;;20.90;89.10;;;;;;5000223;28;20056;-85
2023/05/06 11:13:28;;;;;;;3.80;0.40;;;21.00;88.90;;;;;;4984184;28;20049;-87
2023/05/06 11:15:54;;;;;;;1.25;0.40;;;21.00;87.10;;;;;;5014409;28;20125;-88
2023/05/06 11:18:30;;;;;;;0.43;0.35;;;21.00;87.10;;;;;;5003883;28;20523;-83
2023/05/06 11:21:02;;;;;;;0.65;0.40;;;21.00;87.30;;;;;;5001968;28;20478;-87
2023/05/06 11:23:48;;;;;;;0.73;0.40;;;21.00;87.20;;;;;;4999163;28;20054;-85
2023/05/06 11:26:13;;;;;;;1.88;0.47;;;21.00;87.00;;;;;;4997608;28;20129;-86
2023/05/06 11:28:41;;;;;;;1.77;0.43;;;21.00;86.90;;;;;;5001145;28;20128;-85
2023/05/06 11:31:07;;;;;;;3.05;0.50;;;21.00;86.90;;;;;;5001868;28;20046;-84
2023/05/06 11:33:33;;;;;;;0.50;0.40;;;21.00;86.90;;;;;;5017664;28;20056;-84
2023/05/06 11:35:59;;;;;;;2.30;0.47;;;21.00;86.70;;;;;;5001198;28;20439;-88
2023/05/06 11:38:25;;;;;;;0.60;0.40;;;21.00;86.70;;;;;;5001860;28;20077;-87
2023/05/06 11:40:51;;;;;;;0.75;0.30;;;21.00;86.30;;;;;;5002240;28;20601;-86
2023/05/06 11:43:17;;;;;;;0.90;0.35;;;21.00;86.40;;;;;;5003225;28;20042;-88
2023/05/06 11:45:46;;;;;;;0.50;0.40;;;21.00;86.30;;;;;;5019226;28;20041;-88
2023/05/06 11:48:16;;;;;;;0.90;0.40;;;21.00;86.50;;;;;;4997653;28;20113;-87
2023/05/06 11:50:46;;;;;;;1.40;0.43;;;21.00;86.30;;;;;;5003826;28;20046;-88
2023/05/06 11:53:18;;;;;;;0.88;0.40;;;21.00;86.30;;;;;;5001698;28;20056;-86
2023/05/06 11:55:44;;;;;;;0.50;0.30;;;21.00;86.20;;;;;;5014801;28;20050;-87
2023/05/06 11:58:17;;;;;;;0.52;0.40;;;21.00;86.20;;;;;;5002479;28;20038;-87
2023/05/06 12:00:51;;;;;;;1.00;0.55;;;21.00;86.20;;;;;;5001049;28;20432;-86
2023/05/06 12:03:20;;;;;;;1.98;0.30;;;21.00;86.20;;;;;;4654033;28;9999586;-87
2023/05/06 12:05:49;;;;;;;0.55;0.30;;;21.00;86.20;;;;;;5003190;28;20065;-86
2023/05/06 12:08:22;;;;;;;0.60;0.32;;;21.00;86.10;;;;;;4997859;28;20129;-85
2023/05/06 12:10:49;;;;;;;1.70;0.53;;;21.00;86.10;;;;;;5004082;28;20053;-85
2023/05/06 12:13:15;;;;;;;1.83;0.35;;;21.00;86.10;;;;;;5005758;28;20049;-89
2023/05/06 12:15:41;;;;;;;0.52;0.43;;;21.00;86.00;;;;;;5002291;28;20133;-88
2023/05/06 12:18:07;;;;;;;2.83;0.28;;;21.00;85.90;;;;;;5012674;28;20041;-88
2023/05/06 12:20:33;;;;;;;1.38;0.30;;;21.00;85.90;;;;;;5018845;28;20046;-84
2023/05/06 12:23:06;;;;;;;0.60;0.40;;;21.00;85.80;;;;;;5020662;28;20121;-84
2023/05/06 12:25:31;;;;;;;0.63;0.40;;;21.00;85.80;;;;;;4998986;28;20042;-85
2023/05/06 12:27:57;;;;;;;0.47;0.47;;;21.00;85.70;;;;;;5002341;28;20045;-84
2023/05/06 12:30:30;;;;;;;0.52;0.40;;;21.00;85.80;;;;;;4844096;28;10000419;-85
2023/05/06 12:32:57;;;;;;;0.20;0.15;;;21.00;85.90;;;;;;4997967;28;20243;-86
2023/05/06 12:35:28;;;;;;;0.30;0.20;;;21.00;86.00;;;;;;4998357;28;20092;-84
2023/05/06 12:37:55;;;;;;;0.57;0.40;;;21.10;86.00;;;;;;5025252;28;20198;-88
2023/05/06 12:40:20;;;;;;;0.20;0.20;;;21.00;86.10;;;;;;5001639;28;20054;-86
2023/05/06 12:42:55;;;;;;;0.50;0.45;;;21.00;85.80;;;;;;5003505;28;20045;-78
2023/05/06 12:45:21;;;;;;;0.70;0.40;;;21.00;85.80;;;;;;5001663;28;20539;-78